createdAt,value
2019-05-25T00:00:00.134Z,11.91
2019-05-25T00:02:31.734Z,11.82
2019-05-25T00:05:04.430Z,11.76
2019-05-25T00:07:36.468Z,11.76
2019-05-25T00:10:11.468Z,11.72
2019-05-25T00:12:43.563Z,11.74
2019-05-25T00:15:15.515Z,11.71
2019-05-25T00:17:47.267Z,11.63
2019-05-25T00:20:20.329Z,11.59
2019-05-25T00:22:52.051Z,11.58
2019-05-25T00:25:26.552Z,11.60
2019-05-25T00:28:00.239Z,11.61
2019-05-25T00:30:33.649Z,11.57
2019-05-25T00:33:08.406Z,11.58
2019-05-25T00:35:40.752Z,11.58
2019-05-25T00:38:13.770Z,11.58
2019-05-25T00:40:46.035Z,11.50
2019-05-25T00:43:17.813Z,11.45
2019-05-25T00:45:49.464Z,11.45
2019-05-25T00:48:22.535Z,11.49
2019-05-25T00:50:54.327Z,11.49
2019-05-25T00:53:26.140Z,11.54
2019-05-25T00:55:58.035Z,11.63
2019-05-25T00:58:29.750Z,11.60
2019-05-25T01:01:01.518Z,11.60
2019-05-25T01:03:34.495Z,11.53
2019-05-25T01:06:06.328Z,11.53
2019-05-25T01:08:38.012Z,11.41
2019-05-25T01:11:09.718Z,11.44
2019-05-25T01:13:41.497Z,11.45
2019-05-25T01:16:13.489Z,11.42
2019-05-25T01:18:46.855Z,11.32
2019-05-25T01:21:20.570Z,11.24
2019-05-25T01:23:52.331Z,11.24
2019-05-25T01:26:26.508Z,11.17
2019-05-25T01:28:58.980Z,11.00
2019-05-25T01:31:31.228Z,10.93
2019-05-25T01:34:03.362Z,10.86
2019-05-25T01:36:35.254Z,10.91
2019-05-25T01:39:07.802Z,11.07
2019-05-25T01:41:39.623Z,11.08
2019-05-25T01:44:11.505Z,11.15
2019-05-25T01:46:43.374Z,11.08
2019-05-25T01:49:15.019Z,11.03
2019-05-25T01:51:46.614Z,11.04
2019-05-25T01:54:18.617Z,10.99
2019-05-25T01:56:50.389Z,11.10
2019-05-25T01:59:21.995Z,11.21
2019-05-25T02:01:53.879Z,11.31
2019-05-25T02:04:26.084Z,11.36
2019-05-25T02:06:57.614Z,11.27
2019-05-25T02:09:29.245Z,11.30
2019-05-25T02:12:01.225Z,11.23
2019-05-25T02:14:33.139Z,11.17
2019-05-25T02:17:05.999Z,11.14
2019-05-25T02:19:37.884Z,11.11
2019-05-25T02:22:09.481Z,11.04
2019-05-25T02:24:41.348Z,10.85
2019-05-25T02:27:13.172Z,10.66
2019-05-25T02:29:45.004Z,10.36
2019-05-25T02:32:16.823Z,10.17
2019-05-25T02:34:48.947Z,10.12
2019-05-25T02:37:20.979Z,10.07
2019-05-25T02:39:52.914Z,9.97
2019-05-25T02:42:24.853Z,9.95
2019-05-25T02:44:56.428Z,10.03
2019-05-25T02:47:28.800Z,9.94
2019-05-25T02:50:00.804Z,9.94
2019-05-25T02:52:33.963Z,9.83
2019-05-25T02:55:07.779Z,9.83
2019-05-25T02:57:39.483Z,9.80
2019-05-25T03:00:13.141Z,9.64
2019-05-25T03:02:45.766Z,9.59
2019-05-25T03:05:18.218Z,9.54
2019-05-25T03:07:51.922Z,9.51
2019-05-25T03:10:24.925Z,9.51
2019-05-25T03:12:57.507Z,9.54
2019-05-25T03:15:30.003Z,9.48
2019-05-25T03:18:01.853Z,9.48
2019-05-25T03:20:34.126Z,9.46
2019-05-25T03:23:05.886Z,9.40
2019-05-25T03:25:49.186Z,9.39
2019-05-25T03:28:10.954Z,9.48
2019-05-25T03:30:44.578Z,9.56
2019-05-25T03:33:16.610Z,9.54
2019-05-25T03:35:48.260Z,9.52
2019-05-25T03:38:20.055Z,9.55
2019-05-25T03:40:52.172Z,9.65
2019-05-25T03:43:23.953Z,9.69
2019-05-25T03:45:55.701Z,9.71
2019-05-25T03:48:27.537Z,9.70
2019-05-25T03:50:59.414Z,9.71
2019-05-25T03:53:31.084Z,9.69
2019-05-25T03:56:06.308Z,9.70
2019-05-25T03:58:37.366Z,9.82
2019-05-25T04:01:09.672Z,9.88
2019-05-25T04:03:41.450Z,9.90
2019-05-25T04:06:13.704Z,9.92
2019-05-25T04:08:45.666Z,9.95
2019-05-25T04:11:17.348Z,9.97
2019-05-25T04:13:48.906Z,9.97
2019-05-25T04:16:20.577Z,9.98
2019-05-25T04:18:52.806Z,10.01
2019-05-25T04:21:24.717Z,10.03
2019-05-25T04:23:56.577Z,9.98
2019-05-25T04:26:28.379Z,9.95
2019-05-25T04:29:00.074Z,10.01
2019-05-25T04:31:32.190Z,10.07
2019-05-25T04:34:04.583Z,10.05
2019-05-25T04:36:36.228Z,10.10
2019-05-25T04:39:09.089Z,10.18
2019-05-25T04:41:41.108Z,10.17
2019-05-25T04:44:13.265Z,10.23
2019-05-25T04:46:45.248Z,10.30
2019-05-25T04:49:18.628Z,10.36
2019-05-25T04:51:50.590Z,10.35
2019-05-25T04:54:22.170Z,10.37
2019-05-25T04:56:56.548Z,10.46
2019-05-25T04:59:28.679Z,10.52
2019-05-25T05:02:00.300Z,10.62
2019-05-25T05:04:33.794Z,10.73
2019-05-25T05:07:06.350Z,10.85
2019-05-25T05:09:37.972Z,10.86
2019-05-25T05:12:09.690Z,10.96
2019-05-25T05:14:41.670Z,11.04
2019-05-25T05:17:13.889Z,11.28
2019-05-25T05:19:46.589Z,11.44
2019-05-25T05:22:20.053Z,11.64
2019-05-25T05:24:53.178Z,11.74
2019-05-25T05:27:24.955Z,11.66
2019-05-25T05:29:56.671Z,11.76
2019-05-25T05:32:28.338Z,11.84
2019-05-25T05:35:00.183Z,11.89
2019-05-25T05:37:32.487Z,11.93
2019-05-25T05:40:04.234Z,11.94
2019-05-25T05:42:39.340Z,11.87
2019-05-25T05:45:11.488Z,11.92
2019-05-25T05:47:45.038Z,11.83
2019-05-25T05:50:17.653Z,11.96
2019-05-25T05:52:52.580Z,11.94
2019-05-25T05:55:31.214Z,11.90
2019-05-25T05:58:03.400Z,12.00
2019-05-25T06:00:35.437Z,12.08
2019-05-25T06:03:07.239Z,12.13
2019-05-25T06:05:39.240Z,12.19
2019-05-25T06:08:10.925Z,12.16
2019-05-25T06:10:42.656Z,12.20
2019-05-25T06:13:14.216Z,12.25
2019-05-25T06:15:46.485Z,12.28
2019-05-25T06:18:18.219Z,12.40
2019-05-25T06:20:50.168Z,12.54
2019-05-25T06:23:22.479Z,12.56
2019-05-25T06:25:54.749Z,12.67
2019-05-25T06:28:28.244Z,12.75
2019-05-25T06:31:00.171Z,12.90
2019-05-25T06:33:33.141Z,13.12
2019-05-25T06:36:04.966Z,13.26
2019-05-25T06:38:37.573Z,13.31
2019-05-25T06:41:10.773Z,13.36
2019-05-25T06:43:43.794Z,13.54
2019-05-25T06:46:15.460Z,13.63
2019-05-25T06:48:47.202Z,13.63
2019-05-25T06:51:19.045Z,13.91
2019-05-25T06:53:51.469Z,14.12
2019-05-25T06:56:23.366Z,14.23
2019-05-25T06:58:55.778Z,14.47
2019-05-25T07:01:28.487Z,14.46
2019-05-25T07:04:02.165Z,14.64
2019-05-25T07:06:33.954Z,14.87
2019-05-25T07:09:08.302Z,15.05
2019-05-25T07:11:40.323Z,15.15
2019-05-25T07:14:13.461Z,15.19
2019-05-25T07:16:45.220Z,15.39
2019-05-25T07:19:18.530Z,15.50
2019-05-25T07:21:50.524Z,15.61
2019-05-25T07:24:22.767Z,15.75
2019-05-25T07:26:55.980Z,15.86
2019-05-25T07:29:28.097Z,16.02
2019-05-25T07:32:02.029Z,15.73
2019-05-25T07:34:33.834Z,15.73
2019-05-25T07:37:05.990Z,15.82
2019-05-25T07:39:37.729Z,15.82
2019-05-25T07:42:09.639Z,16.05
2019-05-25T07:44:43.209Z,16.22
2019-05-25T07:47:15.794Z,16.47
2019-05-25T07:49:47.931Z,16.47
2019-05-25T07:52:19.625Z,16.62
2019-05-25T07:54:53.137Z,16.73
2019-05-25T07:57:28.566Z,16.71
2019-05-25T08:00:00.113Z,16.69
2019-05-25T08:02:31.832Z,16.64
2019-05-25T08:05:03.892Z,16.94
2019-05-25T08:07:35.588Z,16.94
2019-05-25T08:10:07.687Z,17.03
2019-05-25T08:12:39.259Z,17.24
2019-05-25T08:15:11.177Z,17.33
2019-05-25T08:17:42.795Z,17.40
2019-05-25T08:20:14.911Z,17.35
2019-05-25T08:22:47.360Z,17.44
2019-05-25T08:25:19.533Z,17.62
2019-05-25T08:27:51.864Z,17.67
2019-05-25T08:30:24.869Z,17.89
2019-05-25T08:32:58.055Z,17.95
2019-05-25T08:35:29.771Z,17.98
2019-05-25T08:38:01.916Z,18.12
2019-05-25T08:40:33.632Z,18.43
2019-05-25T08:43:06.210Z,18.44
2019-05-25T08:45:38.246Z,17.83
2019-05-25T08:48:10.092Z,17.93
2019-05-25T08:50:41.732Z,18.04
2019-05-25T08:53:14.132Z,17.89
2019-05-25T08:55:46.216Z,17.98
2019-05-25T08:58:19.507Z,18.10
2019-05-25T09:00:51.288Z,18.47
2019-05-25T09:03:23.304Z,18.36
2019-05-25T09:05:55.968Z,18.48
2019-05-25T09:08:28.026Z,18.54
2019-05-25T09:11:00.932Z,18.45
2019-05-25T09:13:32.527Z,18.63
2019-05-25T09:16:04.633Z,18.46
2019-05-25T09:18:36.778Z,18.33
2019-05-25T09:21:08.693Z,18.37
2019-05-25T09:23:40.251Z,18.61
2019-05-25T09:26:13.517Z,18.77
2019-05-25T09:28:45.281Z,18.69
2019-05-25T09:31:18.576Z,18.75
2019-05-25T09:33:51.563Z,18.81
2019-05-25T09:36:23.499Z,18.72
2019-05-25T09:38:55.279Z,18.93
2019-05-25T09:41:26.942Z,18.97
2019-05-25T09:44:00.744Z,18.60
2019-05-25T09:46:34.461Z,18.80
2019-05-25T09:49:08.700Z,18.82
2019-05-25T09:51:42.565Z,18.97
2019-05-25T09:54:14.317Z,19.17
2019-05-25T09:56:47.768Z,19.43
2019-05-25T09:59:20.728Z,19.50
2019-05-25T10:01:52.382Z,19.65
2019-05-25T10:04:25.552Z,19.22
2019-05-25T10:06:57.233Z,19.31
2019-05-25T10:09:28.835Z,19.53
2019-05-25T10:12:01.228Z,19.36
2019-05-25T10:14:33.031Z,19.49
2019-05-25T10:17:08.541Z,19.71
2019-05-25T10:19:40.475Z,19.76
2019-05-25T10:22:13.279Z,19.80
2019-05-25T10:24:45.326Z,20.04
2019-05-25T10:27:17.028Z,19.96
2019-05-25T10:29:48.752Z,19.92
2019-05-25T10:32:20.511Z,19.90
2019-05-25T10:34:52.319Z,20.17
2019-05-25T10:37:24.522Z,19.74
2019-05-25T10:39:56.330Z,20.28
2019-05-25T10:42:30.306Z,20.70
2019-05-25T10:45:04.163Z,21.04
2019-05-25T10:47:37.603Z,20.83
2019-05-25T10:50:12.699Z,20.58
2019-05-25T10:52:46.711Z,20.68
2019-05-25T10:55:19.811Z,20.02
2019-05-25T10:57:51.449Z,20.09
2019-05-25T11:00:24.971Z,20.18
2019-05-25T11:02:58.321Z,20.41
2019-05-25T11:05:30.202Z,20.25
2019-05-25T11:08:01.882Z,20.45
2019-05-25T11:10:33.759Z,20.77
2019-05-25T11:13:06.101Z,20.86
2019-05-25T11:15:37.923Z,20.73
2019-05-25T11:18:09.816Z,20.66
2019-05-25T11:20:41.970Z,20.88
2019-05-25T11:23:13.928Z,21.09
2019-05-25T11:25:45.870Z,20.77
2019-05-25T11:28:18.687Z,20.35
2019-05-25T11:30:50.435Z,20.84
2019-05-25T11:33:22.409Z,21.16
2019-05-25T11:35:54.129Z,21.28
2019-05-25T11:38:28.156Z,21.59
2019-05-25T11:41:00.068Z,21.07
2019-05-25T11:43:33.228Z,21.25
2019-05-25T11:46:06.518Z,21.23
2019-05-25T11:48:38.078Z,20.90
2019-05-25T11:51:09.795Z,21.50
2019-05-25T11:53:43.103Z,22.08
2019-05-25T11:56:16.051Z,21.64
2019-05-25T11:58:48.110Z,21.77
2019-05-25T12:01:20.463Z,21.97
2019-05-25T12:03:52.016Z,22.18
2019-05-25T12:06:24.562Z,22.90
2019-05-25T12:08:56.549Z,22.22
2019-05-25T12:11:28.248Z,23.11
2019-05-25T12:14:00.409Z,23.33
2019-05-25T12:16:32.219Z,22.61
2019-05-25T12:19:03.885Z,22.41
2019-05-25T12:21:37.552Z,22.61
2019-05-25T12:24:09.424Z,21.62
2019-05-25T12:26:41.066Z,21.45
2019-05-25T12:29:13.089Z,21.56
2019-05-25T12:31:44.615Z,22.06
2019-05-25T12:34:17.336Z,22.47
2019-05-25T12:36:49.119Z,22.85
2019-05-25T12:39:21.537Z,22.50
2019-05-25T12:41:53.834Z,23.47
2019-05-25T12:44:26.826Z,24.23
2019-05-25T12:46:59.082Z,23.74
2019-05-25T12:49:49.400Z,24.37
2019-05-25T12:52:06.870Z,24.02
2019-05-25T12:54:39.922Z,23.18
2019-05-25T12:57:13.185Z,22.97
2019-05-25T12:59:46.652Z,22.89
2019-05-25T13:02:18.458Z,23.27
2019-05-25T13:04:50.189Z,23.11
2019-05-25T13:07:22.282Z,23.07
2019-05-25T13:09:53.936Z,23.33
2019-05-25T13:12:27.733Z,23.81
2019-05-25T13:14:59.441Z,24.34
2019-05-25T13:17:31.229Z,24.74
2019-05-25T13:20:02.936Z,24.38
2019-05-25T13:22:34.968Z,23.96
2019-05-25T13:25:07.109Z,24.41
2019-05-25T13:27:40.333Z,23.67
2019-05-25T13:30:12.164Z,23.85
2019-05-25T13:32:44.507Z,23.28
2019-05-25T13:35:18.197Z,23.68
2019-05-25T13:37:50.654Z,24.45
2019-05-25T13:40:22.576Z,24.87
2019-05-25T13:42:55.960Z,25.10
2019-05-25T13:45:27.966Z,24.15
2019-05-25T13:48:00.933Z,24.51
2019-05-25T13:50:33.252Z,23.81
2019-05-25T13:53:09.487Z,23.32
2019-05-25T13:55:42.172Z,23.39
2019-05-25T13:58:15.743Z,23.81
2019-05-25T14:00:47.650Z,24.08
2019-05-25T14:03:19.623Z,23.59
2019-05-25T14:05:51.504Z,24.16
2019-05-25T14:08:23.606Z,24.46
2019-05-25T14:10:56.412Z,24.71
2019-05-25T14:13:28.451Z,24.20
2019-05-25T14:16:07.214Z,24.16
2019-05-25T14:18:33.509Z,24.89
2019-05-25T14:21:05.796Z,25.01
2019-05-25T14:23:37.726Z,24.62
2019-05-25T14:26:10.637Z,25.10
2019-05-25T14:28:44.237Z,24.54
2019-05-25T14:31:16.407Z,23.96
2019-05-25T14:33:48.631Z,23.97
2019-05-25T14:36:21.345Z,23.82
2019-05-25T14:38:55.296Z,23.64
2019-05-25T14:41:27.692Z,23.27
2019-05-25T14:44:00.783Z,23.17
2019-05-25T14:46:34.843Z,22.46
2019-05-25T14:49:07.344Z,22.57
2019-05-25T14:51:39.891Z,22.42
2019-05-25T14:54:11.739Z,22.37
2019-05-25T14:56:43.555Z,22.34
2019-05-25T14:59:15.902Z,21.28
2019-05-25T15:02:01.519Z,20.93
2019-05-25T15:04:21.404Z,20.50
2019-05-25T15:06:53.061Z,20.35
2019-05-25T15:09:25.407Z,20.35
2019-05-25T15:11:56.937Z,20.18
2019-05-25T15:14:29.229Z,20.25
2019-05-25T15:17:01.733Z,20.32
2019-05-25T15:19:33.579Z,20.37
2019-05-25T15:22:06.112Z,20.30
2019-05-25T15:24:37.846Z,20.15
2019-05-25T15:27:10.377Z,20.23
2019-05-25T15:29:42.943Z,20.33
2019-05-25T15:32:20.417Z,20.38
2019-05-25T15:34:49.941Z,20.35
2019-05-25T15:37:22.015Z,20.46
2019-05-25T15:39:53.947Z,20.63
2019-05-25T15:42:25.545Z,20.44
2019-05-25T15:44:57.340Z,20.47
2019-05-25T15:47:29.063Z,20.51
2019-05-25T15:50:00.983Z,20.59
2019-05-25T15:52:33.255Z,20.46
2019-05-25T15:55:07.342Z,20.47
2019-05-25T15:57:39.085Z,20.40
2019-05-25T16:00:11.763Z,20.72
2019-05-25T16:02:43.451Z,20.75
2019-05-25T16:05:16.124Z,20.79
2019-05-25T16:07:51.169Z,20.83
2019-05-25T16:10:23.092Z,20.88
2019-05-25T16:12:54.888Z,21.01
2019-05-25T16:15:30.051Z,21.34
2019-05-25T16:18:01.763Z,21.47
2019-05-25T16:20:36.177Z,21.72
2019-05-25T16:23:08.902Z,22.17
2019-05-25T16:25:43.254Z,21.97
2019-05-25T16:28:14.893Z,22.26
2019-05-25T16:30:47.720Z,22.24
2019-05-25T16:33:20.553Z,22.65
2019-05-25T16:35:52.494Z,21.91
2019-05-25T16:38:24.457Z,22.22
2019-05-25T16:40:57.350Z,21.80
2019-05-25T16:43:29.334Z,21.64
2019-05-25T16:46:01.091Z,22.00
2019-05-25T16:48:33.332Z,22.62
2019-05-25T16:51:06.676Z,22.81
2019-05-25T16:53:38.416Z,22.93
2019-05-25T16:56:10.118Z,23.17
2019-05-25T16:58:41.880Z,22.88
2019-05-25T17:01:17.761Z,23.16
2019-05-25T17:03:47.479Z,23.01
2019-05-25T17:06:19.115Z,23.38
2019-05-25T17:08:50.704Z,23.51
2019-05-25T17:11:22.403Z,23.58
2019-05-25T17:13:55.341Z,23.61
2019-05-25T17:16:27.067Z,23.27
2019-05-25T17:18:58.733Z,22.48
2019-05-25T17:21:32.217Z,22.36
2019-05-25T17:24:03.863Z,22.61
2019-05-25T17:26:35.507Z,22.31
2019-05-25T17:29:09.074Z,22.58
2019-05-25T17:31:44.445Z,22.62
2019-05-25T17:34:17.317Z,23.01
2019-05-25T17:36:50.336Z,23.28
2019-05-25T17:39:22.479Z,23.55
2019-05-25T17:41:55.598Z,23.69
2019-05-25T17:44:27.357Z,23.60
2019-05-25T17:46:59.385Z,23.42
2019-05-25T17:49:31.109Z,23.33
2019-05-25T17:52:02.728Z,23.22
2019-05-25T17:54:34.718Z,23.04
2019-05-25T17:57:06.454Z,22.89
2019-05-25T17:59:38.125Z,22.86
2019-05-25T18:02:09.672Z,22.80
2019-05-25T18:04:41.689Z,22.80
2019-05-25T18:07:13.600Z,22.39
2019-05-25T18:09:45.851Z,22.22
2019-05-25T18:12:17.611Z,22.02
2019-05-25T18:14:49.184Z,21.62
2019-05-25T18:17:20.822Z,21.28
2019-05-25T18:19:53.317Z,20.92
2019-05-25T18:22:26.185Z,20.92
2019-05-25T18:24:59.024Z,20.69
2019-05-25T18:27:30.612Z,20.36
2019-05-25T18:30:02.776Z,20.18
2019-05-25T18:32:35.562Z,19.97
2019-05-25T18:35:10.262Z,19.71
2019-05-25T18:37:43.762Z,19.57
2019-05-25T18:40:15.883Z,19.49
2019-05-25T18:42:50.084Z,19.40
2019-05-25T18:45:22.414Z,19.29
2019-05-25T18:47:54.145Z,19.24
2019-05-25T18:50:25.936Z,19.24
2019-05-25T18:52:57.945Z,19.24
2019-05-25T18:55:29.988Z,19.21
2019-05-25T18:58:02.362Z,19.14
2019-05-25T19:00:34.062Z,19.17
2019-05-25T19:03:05.886Z,19.06
2019-05-25T19:05:37.783Z,19.02
2019-05-25T19:08:09.697Z,19.02
2019-05-25T19:10:42.232Z,18.97
2019-05-25T19:13:15.371Z,18.93
2019-05-25T19:15:48.567Z,18.83
2019-05-25T19:18:20.785Z,18.67
2019-05-25T19:20:52.376Z,18.51
2019-05-25T19:23:25.803Z,18.42
2019-05-25T19:25:58.178Z,18.36
2019-05-25T19:28:30.778Z,18.30
2019-05-25T19:31:03.668Z,18.36
2019-05-25T19:33:36.745Z,18.32
2019-05-25T19:36:08.628Z,18.18
2019-05-25T19:38:40.708Z,18.07
2019-05-25T19:41:15.350Z,17.98
2019-05-25T19:43:47.407Z,17.70
2019-05-25T19:46:19.443Z,17.47
2019-05-25T19:48:52.001Z,17.39
2019-05-25T19:51:24.137Z,17.38
2019-05-25T19:53:55.823Z,17.37
2019-05-25T19:56:27.889Z,17.39
2019-05-25T19:59:00.365Z,17.26
2019-05-25T20:01:32.254Z,17.12
2019-05-25T20:04:04.055Z,17.04
2019-05-25T20:06:36.194Z,16.97
2019-05-25T20:09:08.213Z,16.91
2019-05-25T20:11:39.981Z,16.77
2019-05-25T20:14:12.910Z,16.77
2019-05-25T20:16:46.537Z,16.80
2019-05-25T20:19:19.060Z,16.75
2019-05-25T20:21:51.282Z,16.77
2019-05-25T20:24:23.542Z,16.76
2019-05-25T20:26:56.071Z,16.67
2019-05-25T20:29:27.760Z,16.48
2019-05-25T20:31:59.751Z,16.39
2019-05-25T20:34:31.840Z,16.31
2019-05-25T20:37:04.375Z,16.20
2019-05-25T20:39:36.166Z,16.11
2019-05-25T20:42:07.799Z,16.05
2019-05-25T20:44:39.511Z,16.00
2019-05-25T20:47:11.423Z,16.05
2019-05-25T20:49:43.209Z,16.02
2019-05-25T20:52:15.459Z,15.98
2019-05-25T20:54:47.345Z,15.98
2019-05-25T20:57:19.613Z,15.91
2019-05-25T20:59:51.450Z,15.91
2019-05-25T21:02:23.670Z,15.99
2019-05-25T21:04:55.570Z,16.10
2019-05-25T21:07:27.535Z,16.11
2019-05-25T21:10:00.595Z,16.07
2019-05-25T21:12:32.908Z,16.01
2019-05-25T21:15:05.907Z,15.89
2019-05-25T21:17:39.042Z,15.89
2019-05-25T21:20:10.963Z,15.76
2019-05-25T21:22:42.923Z,15.75
2019-05-25T21:25:15.203Z,15.78
2019-05-25T21:27:47.142Z,15.76
2019-05-25T21:30:19.766Z,15.68
2019-05-25T21:32:53.205Z,15.58
2019-05-25T21:35:27.307Z,15.46
2019-05-25T21:38:00.519Z,15.40
2019-05-25T21:40:32.162Z,15.39
2019-05-25T21:43:03.912Z,15.37
2019-05-25T21:45:35.530Z,15.39
2019-05-25T21:48:07.527Z,15.36
2019-05-25T21:50:39.051Z,15.32
2019-05-25T21:53:11.469Z,15.33
2019-05-25T21:55:43.267Z,15.25
2019-05-25T21:58:15.588Z,15.18
2019-05-25T22:00:47.914Z,15.14
2019-05-25T22:03:20.124Z,15.14
2019-05-25T22:05:51.972Z,15.12
2019-05-25T22:08:23.577Z,15.13
2019-05-25T22:10:56.949Z,15.16
2019-05-25T22:13:29.698Z,15.10
2019-05-25T22:16:01.509Z,15.04
2019-05-25T22:18:34.837Z,15.01
2019-05-25T22:21:08.042Z,15.03
2019-05-25T22:23:39.915Z,15.11
2019-05-25T22:26:11.945Z,15.07
2019-05-25T22:28:45.359Z,14.97
2019-05-25T22:31:17.703Z,14.84
2019-05-25T22:33:49.724Z,14.66
2019-05-25T22:36:22.192Z,14.56
2019-05-25T22:38:54.624Z,14.52
2019-05-25T22:41:26.686Z,14.44
2019-05-25T22:44:00.499Z,14.42
2019-05-25T22:46:32.657Z,14.47
2019-05-25T22:49:04.302Z,14.52
2019-05-25T22:51:36.167Z,14.46
2019-05-25T22:54:07.921Z,14.49
2019-05-25T22:56:39.524Z,14.57
2019-05-25T22:59:11.666Z,14.61
2019-05-25T23:01:45.328Z,14.63
2019-05-25T23:04:17.783Z,14.56
2019-05-25T23:06:57.713Z,14.51
2019-05-25T23:09:27.641Z,14.62
2019-05-25T23:12:00.361Z,14.67
2019-05-25T23:14:32.200Z,14.61
2019-05-25T23:17:05.799Z,14.65
2019-05-25T23:19:37.645Z,14.61
2019-05-25T23:22:09.390Z,14.60
2019-05-25T23:24:43.475Z,14.59
2019-05-25T23:27:16.164Z,14.57
2019-05-25T23:29:49.141Z,14.54
2019-05-25T23:32:21.190Z,14.55
2019-05-25T23:34:53.397Z,14.61
2019-05-25T23:37:27.054Z,14.66
2019-05-25T23:39:58.858Z,14.73
2019-05-25T23:42:30.602Z,14.71
2019-05-25T23:45:03.139Z,14.70
2019-05-25T23:47:36.325Z,14.63
2019-05-25T23:50:08.885Z,14.56
2019-05-25T23:52:40.592Z,14.55
2019-05-25T23:55:13.113Z,14.46
2019-05-25T23:57:44.906Z,14.40
